SBCT/CWB METAR and TAF weather

Enter ICAO airport designator
Station Type Date Time Source
SBCT METAR 2021/05/13 07:00 UTC NOAA

SBCT 130700Z 10004KT 9999 BKN009 09/08 Q1022


Station Type Date Time Source
SBCT Decoded METAR 2021/05/13 07:00 UTC NOAA

Curitiba Aeroporto , Brazil (SBCT) 25-31S 049-10W 908M
May 13, 2021 - 03:00 AM EDT / 2021.05.13 0700 UTC
Wind: from the E (100 degrees) at 5 MPH (4 KT):0
Visibility: greater than 7 mile(s):0
Sky conditions: mostly cloudy
Temperature: 48 F (9 C)
Dew Point: 46 F (8 C)
Relative Humidity: 93%
Pressure (altimeter): 30.18 in. Hg (1022 hPa)
ob: SBCT 130700Z 10004KT 9999 BKN009 09/08 Q1022
cycle: 7

Station Type Date Time Source
SBCT TAF 2021/05/13 06:36 UTC NOAA

TAF SBCT 130300Z 1306/1406 10005KT 9999 BKN008 TN10/1307Z TX15/1315Z
BECMG 1313/1315 11010KT BKN020
BECMG 1319/1321 BKN007
RMK PDY

Example: see airport list